sensor_id;sensor_type;location;lat;lon;timestamp;temperature;humidity
24802;DHT22;12898;50.520;12.152;2023-06-10T00:01:38;11.60;99.90
24802;DHT22;12898;50.520;12.152;2023-06-10T00:04:04;11.50;99.90
24802;DHT22;12898;50.520;12.152;2023-06-10T00:06:30;11.40;99.90
24802;DHT22;12898;50.520;12.152;2023-06-10T00:09:04;11.40;99.90
24802;DHT22;12898;50.520;12.152;2023-06-10T00:11:33;11.30;99.90
24802;DHT22;12898;50.520;12.152;2023-06-10T00:13:59;11.30;99.90
24802;DHT22;12898;50.520;12.152;2023-06-10T00:16:25;11.30;99.90
24802;DHT22;12898;50.520;12.152;2023-06-10T00:18:51;11.30;99.90
24802;DHT22;12898;50.520;12.152;2023-06-10T00:21:17;11.20;99.90
24802;DHT22;12898;50.520;12.152;2023-06-10T00:23:44;11.20;99.90
24802;DHT22;12898;50.520;12.152;2023-06-10T00:26:10;11.20;99.90
24802;DHT22;12898;50.520;12.152;2023-06-10T00:28:36;11.10;99.90
24802;DHT22;12898;50.520;12.152;2023-06-10T00:31:02;11.10;99.90
24802;DHT22;12898;50.520;12.152;2023-06-10T00:33:29;11.10;99.90
24802;DHT22;12898;50.520;12.152;2023-06-10T00:35:55;11.10;99.90
24802;DHT22;12898;50.520;12.152;2023-06-10T00:38:21;11.00;99.90
24802;DHT22;12898;50.520;12.152;2023-06-10T00:40:46;11.00;99.90
24802;DHT22;12898;50.520;12.152;2023-06-10T00:43:12;11.00;99.90
24802;DHT22;12898;50.520;12.152;2023-06-10T00:45:38;10.90;99.90
24802;DHT22;12898;50.520;12.152;2023-06-10T00:48:04;10.90;99.90
24802;DHT22;12898;50.520;12.152;2023-06-10T00:50:30;10.80;99.90
24802;DHT22;12898;50.520;12.152;2023-06-10T00:52:58;10.80;99.90
24802;DHT22;12898;50.520;12.152;2023-06-10T00:55:24;10.80;99.90
24802;DHT22;12898;50.520;12.152;2023-06-10T00:57:53;10.70;99.90
24802;DHT22;12898;50.520;12.152;2023-06-10T01:00:19;10.70;99.90
24802;DHT22;12898;50.520;12.152;2023-06-10T01:02:44;10.70;99.90
24802;DHT22;12898;50.520;12.152;2023-06-10T01:05:10;10.70;99.90
24802;DHT22;12898;50.520;12.152;2023-06-10T01:07:46;10.60;99.90
24802;DHT22;12898;50.520;12.152;2023-06-10T01:13:16;10.60;99.90
24802;DHT22;12898;50.520;12.152;2023-06-10T01:15:44;10.60;99.90
24802;DHT22;12898;50.520;12.152;2023-06-10T01:18:10;10.60;99.90
24802;DHT22;12898;50.520;12.152;2023-06-10T01:20:41;10.60;99.90
24802;DHT22;12898;50.520;12.152;2023-06-10T01:23:12;10.50;99.90
24802;DHT22;12898;50.520;12.152;2023-06-10T01:25:45;10.50;99.90
24802;DHT22;12898;50.520;12.152;2023-06-10T01:28:17;10.50;99.90
24802;DHT22;12898;50.520;12.152;2023-06-10T01:30:51;10.50;99.90
24802;DHT22;12898;50.520;12.152;2023-06-10T01:33:27;10.50;99.90
24802;DHT22;12898;50.520;12.152;2023-06-10T01:35:58;10.40;99.90
24802;DHT22;12898;50.520;12.152;2023-06-10T01:38:27;10.40;99.90
24802;DHT22;12898;50.520;12.152;2023-06-10T01:40:56;10.40;99.90
24802;DHT22;12898;50.520;12.152;2023-06-10T01:43:23;10.30;99.90
24802;DHT22;12898;50.520;12.152;2023-06-10T01:45:48;10.30;99.90
24802;DHT22;12898;50.520;12.152;2023-06-10T01:48:14;10.30;99.90
24802;DHT22;12898;50.520;12.152;2023-06-10T01:50:40;10.30;99.90
24802;DHT22;12898;50.520;12.152;2023-06-10T01:53:05;10.20;99.90
24802;DHT22;12898;50.520;12.152;2023-06-10T01:55:31;10.20;99.90
24802;DHT22;12898;50.520;12.152;2023-06-10T01:57:57;10.20;99.90
24802;DHT22;12898;50.520;12.152;2023-06-10T02:00:23;10.10;99.90
24802;DHT22;12898;50.520;12.152;2023-06-10T02:02:48;10.10;99.90
24802;DHT22;12898;50.520;12.152;2023-06-10T02:05:14;10.10;99.90
24802;DHT22;12898;50.520;12.152;2023-06-10T02:07:40;10.10;99.90
24802;DHT22;12898;50.520;12.152;2023-06-10T02:10:06;10.10;99.90
24802;DHT22;12898;50.520;12.152;2023-06-10T02:12:33;10.00;99.90
24802;DHT22;12898;50.520;12.152;2023-06-10T02:14:58;10.00;99.90
24802;DHT22;12898;50.520;12.152;2023-06-10T02:17:24;9.90;99.90
24802;DHT22;12898;50.520;12.152;2023-06-10T02:19:50;9.90;99.90
24802;DHT22;12898;50.520;12.152;2023-06-10T02:22:22;9.90;99.90
24802;DHT22;12898;50.520;12.152;2023-06-10T02:24:48;9.90;99.90
24802;DHT22;12898;50.520;12.152;2023-06-10T02:27:18;9.90;99.90
24802;DHT22;12898;50.520;12.152;2023-06-10T02:29:43;9.90;99.90
24802;DHT22;12898;50.520;12.152;2023-06-10T02:32:09;9.90;99.90
24802;DHT22;12898;50.520;12.152;2023-06-10T02:34:35;9.90;99.90
24802;DHT22;12898;50.520;12.152;2023-06-10T02:37:02;9.90;99.90
24802;DHT22;12898;50.520;12.152;2023-06-10T02:39:28;9.90;99.90
24802;DHT22;12898;50.520;12.152;2023-06-10T02:41:54;9.90;99.90
24802;DHT22;12898;50.520;12.152;2023-06-10T02:44:19;9.90;99.90
24802;DHT22;12898;50.520;12.152;2023-06-10T02:46:45;9.80;99.90
24802;DHT22;12898;50.520;12.152;2023-06-10T02:49:12;9.80;99.90
24802;DHT22;12898;50.520;12.152;2023-06-10T02:51:38;9.80;99.90
24802;DHT22;12898;50.520;12.152;2023-06-10T02:54:04;9.80;99.90
24802;DHT22;12898;50.520;12.152;2023-06-10T02:56:30;9.80;99.90
24802;DHT22;12898;50.520;12.152;2023-06-10T02:58:57;9.70;99.90
24802;DHT22;12898;50.520;12.152;2023-06-10T03:01:23;9.70;99.90
24802;DHT22;12898;50.520;12.152;2023-06-10T03:03:49;9.70;99.90
24802;DHT22;12898;50.520;12.152;2023-06-10T03:06:16;9.70;99.90
24802;DHT22;12898;50.520;12.152;2023-06-10T03:08:42;9.60;99.90
24802;DHT22;12898;50.520;12.152;2023-06-10T03:11:08;9.60;99.90
24802;DHT22;12898;50.520;12.152;2023-06-10T03:13:34;9.60;99.90
24802;DHT22;12898;50.520;12.152;2023-06-10T03:15:59;9.50;99.90
24802;DHT22;12898;50.520;12.152;2023-06-10T03:18:26;9.50;99.90
24802;DHT22;12898;50.520;12.152;2023-06-10T03:20:53;9.50;99.90
24802;DHT22;12898;50.520;12.152;2023-06-10T03:23:20;9.50;99.90
24802;DHT22;12898;50.520;12.152;2023-06-10T03:25:46;9.40;99.90
24802;DHT22;12898;50.520;12.152;2023-06-10T03:28:12;9.40;99.90
24802;DHT22;12898;50.520;12.152;2023-06-10T03:30:37;9.40;99.90
24802;DHT22;12898;50.520;12.152;2023-06-10T03:33:03;9.50;99.90
24802;DHT22;12898;50.520;12.152;2023-06-10T03:35:29;9.50;99.90
24802;DHT22;12898;50.520;12.152;2023-06-10T03:37:55;9.60;99.90
24802;DHT22;12898;50.520;12.152;2023-06-10T03:40:21;9.60;99.90
24802;DHT22;12898;50.520;12.152;2023-06-10T03:42:46;9.50;99.90
24802;DHT22;12898;50.520;12.152;2023-06-10T03:45:12;9.60;99.90
24802;DHT22;12898;50.520;12.152;2023-06-10T03:47:38;9.60;99.90
24802;DHT22;12898;50.520;12.152;2023-06-10T03:50:07;9.60;99.90
24802;DHT22;12898;50.520;12.152;2023-06-10T03:52:37;9.60;99.90
24802;DHT22;12898;50.520;12.152;2023-06-10T03:55:04;9.60;99.90
24802;DHT22;12898;50.520;12.152;2023-06-10T03:57:30;9.60;99.90
24802;DHT22;12898;50.520;12.152;2023-06-10T03:59:56;9.60;99.90
24802;DHT22;12898;50.520;12.152;2023-06-10T04:02:22;9.70;99.90
24802;DHT22;12898;50.520;12.152;2023-06-10T04:04:48;9.70;99.90
24802;DHT22;12898;50.520;12.152;2023-06-10T04:07:14;9.80;99.90
24802;DHT22;12898;50.520;12.152;2023-06-10T04:09:40;9.80;99.90
24802;DHT22;12898;50.520;12.152;2023-06-10T04:12:06;9.90;99.90
24802;DHT22;12898;50.520;12.152;2023-06-10T04:14:34;10.00;99.90
24802;DHT22;12898;50.520;12.152;2023-06-10T04:17:02;10.20;99.90
24802;DHT22;12898;50.520;12.152;2023-06-10T04:19:28;10.30;99.90
24802;DHT22;12898;50.520;12.152;2023-06-10T04:21:54;10.50;99.90
24802;DHT22;12898;50.520;12.152;2023-06-10T04:24:19;10.60;99.90
24802;DHT22;12898;50.520;12.152;2023-06-10T04:26:45;10.80;99.90
24802;DHT22;12898;50.520;12.152;2023-06-10T04:29:11;11.00;99.90
24802;DHT22;12898;50.520;12.152;2023-06-10T04:31:37;11.20;99.90
24802;DHT22;12898;50.520;12.152;2023-06-10T04:34:02;11.50;99.90
24802;DHT22;12898;50.520;12.152;2023-06-10T04:36:28;11.60;99.90
24802;DHT22;12898;50.520;12.152;2023-06-10T04:38:55;11.80;99.90
24802;DHT22;12898;50.520;12.152;2023-06-10T04:41:21;11.90;99.90
24802;DHT22;12898;50.520;12.152;2023-06-10T04:43:47;12.00;99.90
24802;DHT22;12898;50.520;12.152;2023-06-10T04:46:13;12.10;99.90
24802;DHT22;12898;50.520;12.152;2023-06-10T04:48:39;12.20;99.90
24802;DHT22;12898;50.520;12.152;2023-06-10T04:51:05;12.30;99.90
24802;DHT22;12898;50.520;12.152;2023-06-10T04:53:31;12.50;99.90
24802;DHT22;12898;50.520;12.152;2023-06-10T04:55:57;12.70;99.90
24802;DHT22;12898;50.520;12.152;2023-06-10T04:58:23;12.80;99.90
24802;DHT22;12898;50.520;12.152;2023-06-10T05:00:49;13.00;99.90
24802;DHT22;12898;50.520;12.152;2023-06-10T05:03:15;13.30;99.90
24802;DHT22;12898;50.520;12.152;2023-06-10T05:05:41;13.50;99.90
24802;DHT22;12898;50.520;12.152;2023-06-10T05:08:07;13.70;99.90
24802;DHT22;12898;50.520;12.152;2023-06-10T05:10:32;13.80;99.90
24802;DHT22;12898;50.520;12.152;2023-06-10T05:12:59;13.90;99.90
24802;DHT22;12898;50.520;12.152;2023-06-10T05:15:25;14.00;99.90
24802;DHT22;12898;50.520;12.152;2023-06-10T05:17:50;14.00;99.90
24802;DHT22;12898;50.520;12.152;2023-06-10T05:20:17;14.10;99.90
24802;DHT22;12898;50.520;12.152;2023-06-10T05:22:43;14.20;99.90
24802;DHT22;12898;50.520;12.152;2023-06-10T05:25:10;14.30;99.90
24802;DHT22;12898;50.520;12.152;2023-06-10T05:27:35;14.30;99.90
24802;DHT22;12898;50.520;12.152;2023-06-10T05:30:02;14.40;99.90
24802;DHT22;12898;50.520;12.152;2023-06-10T05:32:28;14.50;99.90
24802;DHT22;12898;50.520;12.152;2023-06-10T05:34:54;14.50;99.90
24802;DHT22;12898;50.520;12.152;2023-06-10T05:37:20;14.60;99.90
24802;DHT22;12898;50.520;12.152;2023-06-10T05:39:45;14.60;99.90
24802;DHT22;12898;50.520;12.152;2023-06-10T05:42:11;14.70;99.90
24802;DHT22;12898;50.520;12.152;2023-06-10T05:44:37;14.70;99.90
24802;DHT22;12898;50.520;12.152;2023-06-10T05:47:03;14.70;99.90
24802;DHT22;12898;50.520;12.152;2023-06-10T05:49:28;14.80;99.90
24802;DHT22;12898;50.520;12.152;2023-06-10T05:51:54;14.90;99.90
24802;DHT22;12898;50.520;12.152;2023-06-10T05:54:21;14.90;99.90
24802;DHT22;12898;50.520;12.152;2023-06-10T05:56:47;15.00;99.90
24802;DHT22;12898;50.520;12.152;2023-06-10T05:59:13;15.10;99.90
24802;DHT22;12898;50.520;12.152;2023-06-10T06:01:38;15.20;99.90
24802;DHT22;12898;50.520;12.152;2023-06-10T06:04:04;15.20;99.90
24802;DHT22;12898;50.520;12.152;2023-06-10T06:06:30;15.30;99.90
24802;DHT22;12898;50.520;12.152;2023-06-10T06:08:55;15.40;99.90
24802;DHT22;12898;50.520;12.152;2023-06-10T06:11:21;15.50;99.90
24802;DHT22;12898;50.520;12.152;2023-06-10T06:13:47;15.50;99.90
24802;DHT22;12898;50.520;12.152;2023-06-10T06:16:13;15.60;99.90
24802;DHT22;12898;50.520;12.152;2023-06-10T06:18:39;15.70;99.90
24802;DHT22;12898;50.520;12.152;2023-06-10T06:21:05;15.70;99.90
24802;DHT22;12898;50.520;12.152;2023-06-10T06:23:30;15.80;99.90
24802;DHT22;12898;50.520;12.152;2023-06-10T06:25:56;15.90;99.90
24802;DHT22;12898;50.520;12.152;2023-06-10T06:28:22;16.00;99.90
24802;DHT22;12898;50.520;12.152;2023-06-10T06:30:48;16.20;99.90
24802;DHT22;12898;50.520;12.152;2023-06-10T06:33:13;16.30;99.90
24802;DHT22;12898;50.520;12.152;2023-06-10T06:35:39;16.40;99.90
24802;DHT22;12898;50.520;12.152;2023-06-10T06:38:05;16.40;99.90
24802;DHT22;12898;50.520;12.152;2023-06-10T06:40:31;16.50;99.90
24802;DHT22;12898;50.520;12.152;2023-06-10T06:42:56;16.60;99.90
24802;DHT22;12898;50.520;12.152;2023-06-10T06:45:22;16.70;99.90
24802;DHT22;12898;50.520;12.152;2023-06-10T06:47:48;16.80;99.90
24802;DHT22;12898;50.520;12.152;2023-06-10T06:50:13;16.90;99.90
24802;DHT22;12898;50.520;12.152;2023-06-10T06:52:39;17.00;99.90
24802;DHT22;12898;50.520;12.152;2023-06-10T06:55:05;17.20;99.90
24802;DHT22;12898;50.520;12.152;2023-06-10T06:57:32;17.30;99.90
24802;DHT22;12898;50.520;12.152;2023-06-10T06:59:57;17.50;99.90
24802;DHT22;12898;50.520;12.152;2023-06-10T07:02:23;17.70;99.90
24802;DHT22;12898;50.520;12.152;2023-06-10T07:04:49;17.90;99.90
24802;DHT22;12898;50.520;12.152;2023-06-10T07:07:15;18.00;99.90
24802;DHT22;12898;50.520;12.152;2023-06-10T07:09:41;18.20;99.90
24802;DHT22;12898;50.520;12.152;2023-06-10T07:12:07;18.50;99.90
24802;DHT22;12898;50.520;12.152;2023-06-10T07:14:33;18.60;99.90
24802;DHT22;12898;50.520;12.152;2023-06-10T07:16:59;18.80;99.90
24802;DHT22;12898;50.520;12.152;2023-06-10T07:19:25;19.00;99.90
24802;DHT22;12898;50.520;12.152;2023-06-10T07:21:50;19.20;99.90
24802;DHT22;12898;50.520;12.152;2023-06-10T07:24:16;19.40;99.90
24802;DHT22;12898;50.520;12.152;2023-06-10T07:26:42;19.70;99.90
24802;DHT22;12898;50.520;12.152;2023-06-10T07:29:07;19.90;99.90
24802;DHT22;12898;50.520;12.152;2023-06-10T07:31:33;20.20;99.90
24802;DHT22;12898;50.520;12.152;2023-06-10T07:34:00;20.40;99.90
24802;DHT22;12898;50.520;12.152;2023-06-10T07:36:25;20.60;99.90
24802;DHT22;12898;50.520;12.152;2023-06-10T07:38:54;20.90;99.90
24802;DHT22;12898;50.520;12.152;2023-06-10T07:41:20;21.10;99.90
24802;DHT22;12898;50.520;12.152;2023-06-10T07:43:46;21.30;99.90
24802;DHT22;12898;50.520;12.152;2023-06-10T07:46:11;21.50;99.90
24802;DHT22;12898;50.520;12.152;2023-06-10T07:48:38;21.70;99.90
24802;DHT22;12898;50.520;12.152;2023-06-10T07:51:06;21.80;99.90
24802;DHT22;12898;50.520;12.152;2023-06-10T07:53:31;22.00;99.90
24802;DHT22;12898;50.520;12.152;2023-06-10T07:55:57;22.30;99.90
24802;DHT22;12898;50.520;12.152;2023-06-10T07:58:22;22.50;99.90
24802;DHT22;12898;50.520;12.152;2023-06-10T08:00:48;22.70;99.90
24802;DHT22;12898;50.520;12.152;2023-06-10T08:03:14;22.90;99.90
24802;DHT22;12898;50.520;12.152;2023-06-10T08:05:40;23.10;99.90
24802;DHT22;12898;50.520;12.152;2023-06-10T08:08:06;23.20;99.90
24802;DHT22;12898;50.520;12.152;2023-06-10T08:10:31;23.40;99.90
24802;DHT22;12898;50.520;12.152;2023-06-10T08:12:57;23.70;99.90
24802;DHT22;12898;50.520;12.152;2023-06-10T08:15:23;23.80;99.90
24802;DHT22;12898;50.520;12.152;2023-06-10T08:17:49;23.90;99.90
24802;DHT22;12898;50.520;12.152;2023-06-10T08:20:14;24.00;99.90
24802;DHT22;12898;50.520;12.152;2023-06-10T08:22:40;24.20;99.90
24802;DHT22;12898;50.520;12.152;2023-06-10T08:25:07;24.50;99.90
24802;DHT22;12898;50.520;12.152;2023-06-10T08:27:33;24.80;99.90
24802;DHT22;12898;50.520;12.152;2023-06-10T08:29:59;25.10;99.60
24802;DHT22;12898;50.520;12.152;2023-06-10T08:32:26;25.30;98.60
24802;DHT22;12898;50.520;12.152;2023-06-10T08:34:51;25.50;96.50
24802;DHT22;12898;50.520;12.152;2023-06-10T08:37:17;25.40;96.70
24802;DHT22;12898;50.520;12.152;2023-06-10T08:39:43;25.40;96.80
24802;DHT22;12898;50.520;12.152;2023-06-10T08:42:28;25.60;97.80
24802;DHT22;12898;50.520;12.152;2023-06-10T08:45:01;25.80;94.80
24802;DHT22;12898;50.520;12.152;2023-06-10T08:47:29;26.10;95.00
24802;DHT22;12898;50.520;12.152;2023-06-10T08:49:57;26.30;92.30
24802;DHT22;12898;50.520;12.152;2023-06-10T08:52:33;26.40;91.70
24802;DHT22;12898;50.520;12.152;2023-06-10T08:55:11;26.50;90.70
24802;DHT22;12898;50.520;12.152;2023-06-10T08:57:41;26.70;91.20
24802;DHT22;12898;50.520;12.152;2023-06-10T09:00:08;26.80;90.50
24802;DHT22;12898;50.520;12.152;2023-06-10T09:02:34;26.80;87.80
24802;DHT22;12898;50.520;12.152;2023-06-10T09:05:02;26.70;88.90
24802;DHT22;12898;50.520;12.152;2023-06-10T09:07:30;26.70;90.30
24802;DHT22;12898;50.520;12.152;2023-06-10T09:10:02;26.40;86.10
24802;DHT22;12898;50.520;12.152;2023-06-10T09:12:29;26.50;92.90
24802;DHT22;12898;50.520;12.152;2023-06-10T09:14:55;26.70;89.70
24802;DHT22;12898;50.520;12.152;2023-06-10T09:17:22;26.80;87.70
24802;DHT22;12898;50.520;12.152;2023-06-10T09:19:48;27.00;86.50
24802;DHT22;12898;50.520;12.152;2023-06-10T09:22:14;27.30;90.20
24802;DHT22;12898;50.520;12.152;2023-06-10T09:24:40;27.50;85.40
24802;DHT22;12898;50.520;12.152;2023-06-10T09:27:07;27.90;85.70
24802;DHT22;12898;50.520;12.152;2023-06-10T09:29:52;28.10;78.10
24802;DHT22;12898;50.520;12.152;2023-06-10T09:32:19;28.30;80.30
24802;DHT22;12898;50.520;12.152;2023-06-10T09:34:45;28.50;79.10
24802;DHT22;12898;50.520;12.152;2023-06-10T09:37:11;28.60;75.40
24802;DHT22;12898;50.520;12.152;2023-06-10T09:39:39;28.70;72.50
24802;DHT22;12898;50.520;12.152;2023-06-10T09:42:16;28.80;72.50
24802;DHT22;12898;50.520;12.152;2023-06-10T09:44:49;28.70;70.40
24802;DHT22;12898;50.520;12.152;2023-06-10T09:47:23;28.70;71.80
24802;DHT22;12898;50.520;12.152;2023-06-10T09:49:49;28.80;74.10
24802;DHT22;12898;50.520;12.152;2023-06-10T09:52:24;28.90;68.20
24802;DHT22;12898;50.520;12.152;2023-06-10T09:54:52;29.10;71.80
24802;DHT22;12898;50.520;12.152;2023-06-10T09:57:33;29.10;71.20
24802;DHT22;12898;50.520;12.152;2023-06-10T09:59:59;29.40;74.30
24802;DHT22;12898;50.520;12.152;2023-06-10T10:02:29;29.50;69.30
24802;DHT22;12898;50.520;12.152;2023-06-10T10:05:02;29.70;68.40
24802;DHT22;12898;50.520;12.152;2023-06-10T10:07:29;30.00;69.80
24802;DHT22;12898;50.520;12.152;2023-06-10T10:09:55;30.30;67.60
24802;DHT22;12898;50.520;12.152;2023-06-10T10:12:21;30.40;65.60
24802;DHT22;12898;50.520;12.152;2023-06-10T10:14:48;30.40;64.90
24802;DHT22;12898;50.520;12.152;2023-06-10T10:17:15;30.60;66.10
24802;DHT22;12898;50.520;12.152;2023-06-10T10:19:52;30.70;64.10
24802;DHT22;12898;50.520;12.152;2023-06-10T10:22:25;30.90;64.60
24802;DHT22;12898;50.520;12.152;2023-06-10T10:25:02;30.80;64.30
24802;DHT22;12898;50.520;12.152;2023-06-10T10:28:09;30.70;62.60
24802;DHT22;12898;50.520;12.152;2023-06-10T10:30:40;30.30;62.40
24802;DHT22;12898;50.520;12.152;2023-06-10T10:33:16;29.60;64.20
24802;DHT22;12898;50.520;12.152;2023-06-10T10:35:46;29.00;67.20
24802;DHT22;12898;50.520;12.152;2023-06-10T10:38:12;28.60;69.30
24802;DHT22;12898;50.520;12.152;2023-06-10T10:40:38;28.50;70.70
24802;DHT22;12898;50.520;12.152;2023-06-10T10:43:06;28.80;71.50
24802;DHT22;12898;50.520;12.152;2023-06-10T10:45:33;29.50;73.10
24802;DHT22;12898;50.520;12.152;2023-06-10T10:48:08;30.20;67.20
24802;DHT22;12898;50.520;12.152;2023-06-10T10:50:37;30.80;65.90
24802;DHT22;12898;50.520;12.152;2023-06-10T10:53:04;31.40;62.90
24802;DHT22;12898;50.520;12.152;2023-06-10T10:55:31;31.40;62.10
24802;DHT22;12898;50.520;12.152;2023-06-10T10:58:05;31.50;58.90
24802;DHT22;12898;50.520;12.152;2023-06-10T11:00:34;31.70;59.60
24802;DHT22;12898;50.520;12.152;2023-06-10T11:03:07;31.70;56.60
24802;DHT22;12898;50.520;12.152;2023-06-10T11:05:44;30.90;56.50
24802;DHT22;12898;50.520;12.152;2023-06-10T11:08:13;30.00;56.80
24802;DHT22;12898;50.520;12.152;2023-06-10T11:10:42;28.90;61.30
24802;DHT22;12898;50.520;12.152;2023-06-10T11:13:19;28.10;66.20
24802;DHT22;12898;50.520;12.152;2023-06-10T11:15:47;27.40;67.80
24802;DHT22;12898;50.520;12.152;2023-06-10T11:18:30;26.60;71.60
24802;DHT22;12898;50.520;12.152;2023-06-10T11:21:04;26.00;75.50
24802;DHT22;12898;50.520;12.152;2023-06-10T11:23:50;25.40;81.70
24802;DHT22;12898;50.520;12.152;2023-06-10T11:34:04;24.90;96.30
24802;DHT22;12898;50.520;12.152;2023-06-10T11:36:37;24.90;96.40
24802;DHT22;12898;50.520;12.152;2023-06-10T11:39:09;25.00;97.50
24802;DHT22;12898;50.520;12.152;2023-06-10T11:41:35;25.20;97.40
24802;DHT22;12898;50.520;12.152;2023-06-10T11:44:11;25.70;97.00
24802;DHT22;12898;50.520;12.152;2023-06-10T11:46:38;26.20;93.20
24802;DHT22;12898;50.520;12.152;2023-06-10T11:49:05;26.40;91.60
24802;DHT22;12898;50.520;12.152;2023-06-10T11:51:36;26.60;93.40
24802;DHT22;12898;50.520;12.152;2023-06-10T11:54:04;27.50;90.30
24802;DHT22;12898;50.520;12.152;2023-06-10T11:56:31;28.50;85.50
24802;DHT22;12898;50.520;12.152;2023-06-10T11:59:05;29.50;76.10
24802;DHT22;12898;50.520;12.152;2023-06-10T12:01:34;30.10;72.00
24802;DHT22;12898;50.520;12.152;2023-06-10T12:04:07;30.70;65.60
24802;DHT22;12898;50.520;12.152;2023-06-10T12:06:42;31.10;60.60
24802;DHT22;12898;50.520;12.152;2023-06-10T12:09:16;31.30;58.60
24802;DHT22;12898;50.520;12.152;2023-06-10T12:11:43;31.30;58.10
24802;DHT22;12898;50.520;12.152;2023-06-10T12:14:09;31.50;57.70
24802;DHT22;12898;50.520;12.152;2023-06-10T12:16:35;31.90;57.70
24802;DHT22;12898;50.520;12.152;2023-06-10T12:19:02;32.00;57.90
24802;DHT22;12898;50.520;12.152;2023-06-10T12:21:28;32.10;55.90
24802;DHT22;12898;50.520;12.152;2023-06-10T12:24:04;32.30;55.00
24802;DHT22;12898;50.520;12.152;2023-06-10T12:26:41;32.40;54.90
24802;DHT22;12898;50.520;12.152;2023-06-10T12:29:23;32.40;55.60
24802;DHT22;12898;50.520;12.152;2023-06-10T12:32:03;32.30;55.10
24802;DHT22;12898;50.520;12.152;2023-06-10T12:34:34;32.20;56.20
24802;DHT22;12898;50.520;12.152;2023-06-10T12:37:03;31.80;56.20
24802;DHT22;12898;50.520;12.152;2023-06-10T12:39:31;31.60;56.30
24802;DHT22;12898;50.520;12.152;2023-06-10T12:41:57;31.30;56.70
24802;DHT22;12898;50.520;12.152;2023-06-10T12:44:34;31.10;59.10
24802;DHT22;12898;50.520;12.152;2023-06-10T12:47:10;31.30;57.00
24802;DHT22;12898;50.520;12.152;2023-06-10T12:49:39;31.50;57.00
24802;DHT22;12898;50.520;12.152;2023-06-10T12:52:05;31.40;57.00
24802;DHT22;12898;50.520;12.152;2023-06-10T12:54:32;31.60;55.70
24802;DHT22;12898;50.520;12.152;2023-06-10T12:56:57;31.90;56.50
24802;DHT22;12898;50.520;12.152;2023-06-10T12:59:23;32.20;53.80
24802;DHT22;12898;50.520;12.152;2023-06-10T13:01:51;32.20;55.40
24802;DHT22;12898;50.520;12.152;2023-06-10T13:04:20;32.30;54.90
24802;DHT22;12898;50.520;12.152;2023-06-10T13:06:47;32.30;52.60
24802;DHT22;12898;50.520;12.152;2023-06-10T13:09:14;32.00;53.90
24802;DHT22;12898;50.520;12.152;2023-06-10T13:11:40;32.30;52.50
24802;DHT22;12898;50.520;12.152;2023-06-10T13:14:07;32.50;54.40
24802;DHT22;12898;50.520;12.152;2023-06-10T13:16:32;32.90;51.30
24802;DHT22;12898;50.520;12.152;2023-06-10T13:18:59;33.20;51.00
24802;DHT22;12898;50.520;12.152;2023-06-10T13:21:26;33.50;50.00
24802;DHT22;12898;50.520;12.152;2023-06-10T13:23:52;33.60;52.40
24802;DHT22;12898;50.520;12.152;2023-06-10T13:26:17;33.60;50.10
24802;DHT22;12898;50.520;12.152;2023-06-10T13:28:44;33.50;50.30
24802;DHT22;12898;50.520;12.152;2023-06-10T13:31:10;33.40;50.90
24802;DHT22;12898;50.520;12.152;2023-06-10T13:33:36;33.20;50.90
24802;DHT22;12898;50.520;12.152;2023-06-10T13:36:02;32.70;48.60
24802;DHT22;12898;50.520;12.152;2023-06-10T13:38:28;32.10;52.20
24802;DHT22;12898;50.520;12.152;2023-06-10T13:40:53;32.10;51.70
24802;DHT22;12898;50.520;12.152;2023-06-10T13:43:19;31.60;50.60
24802;DHT22;12898;50.520;12.152;2023-06-10T13:45:45;31.10;49.70
24802;DHT22;12898;50.520;12.152;2023-06-10T13:48:10;30.60;52.70
24802;DHT22;12898;50.520;12.152;2023-06-10T13:50:37;30.10;54.00
24802;DHT22;12898;50.520;12.152;2023-06-10T13:53:03;29.50;53.40
24802;DHT22;12898;50.520;12.152;2023-06-10T13:55:29;29.10;56.90
24802;DHT22;12898;50.520;12.152;2023-06-10T13:57:55;28.70;54.20
24802;DHT22;12898;50.520;12.152;2023-06-10T14:00:20;28.20;56.80
24802;DHT22;12898;50.520;12.152;2023-06-10T14:02:46;27.90;56.20
24802;DHT22;12898;50.520;12.152;2023-06-10T14:05:12;27.50;59.10
24802;DHT22;12898;50.520;12.152;2023-06-10T14:07:37;27.20;58.80
24802;DHT22;12898;50.520;12.152;2023-06-10T14:10:05;27.10;60.90
24802;DHT22;12898;50.520;12.152;2023-06-10T14:12:31;27.00;59.30
24802;DHT22;12898;50.520;12.152;2023-06-10T14:14:57;27.10;60.20
24802;DHT22;12898;50.520;12.152;2023-06-10T14:17:22;27.90;58.20
24802;DHT22;12898;50.520;12.152;2023-06-10T14:19:49;28.50;58.50
24802;DHT22;12898;50.520;12.152;2023-06-10T14:22:14;29.10;56.10
24802;DHT22;12898;50.520;12.152;2023-06-10T14:24:40;29.60;53.50
24802;DHT22;12898;50.520;12.152;2023-06-10T14:27:06;29.40;50.30
24802;DHT22;12898;50.520;12.152;2023-06-10T14:29:32;28.80;52.80
24802;DHT22;12898;50.520;12.152;2023-06-10T14:31:59;28.20;52.50
24802;DHT22;12898;50.520;12.152;2023-06-10T14:34:25;28.00;54.70
24802;DHT22;12898;50.520;12.152;2023-06-10T14:36:54;27.90;55.10
24802;DHT22;12898;50.520;12.152;2023-06-10T14:39:20;27.80;56.60
24802;DHT22;12898;50.520;12.152;2023-06-10T14:41:46;28.20;55.60
24802;DHT22;12898;50.520;12.152;2023-06-10T14:44:12;28.80;55.90
24802;DHT22;12898;50.520;12.152;2023-06-10T14:46:37;29.50;53.30
24802;DHT22;12898;50.520;12.152;2023-06-10T14:49:03;30.10;53.80
24802;DHT22;12898;50.520;12.152;2023-06-10T14:51:29;30.30;51.40
24802;DHT22;12898;50.520;12.152;2023-06-10T14:53:54;30.20;52.70
24802;DHT22;12898;50.520;12.152;2023-06-10T14:56:20;30.20;50.10
24802;DHT22;12898;50.520;12.152;2023-06-10T14:58:46;30.10;51.90
24802;DHT22;12898;50.520;12.152;2023-06-10T15:01:11;29.90;55.00
24802;DHT22;12898;50.520;12.152;2023-06-10T15:03:37;29.90;52.60
24802;DHT22;12898;50.520;12.152;2023-06-10T15:06:03;30.10;52.60
24802;DHT22;12898;50.520;12.152;2023-06-10T15:08:28;30.40;55.50
24802;DHT22;12898;50.520;12.152;2023-06-10T15:10:54;30.70;52.60
24802;DHT22;12898;50.520;12.152;2023-06-10T15:13:20;30.80;53.20
24802;DHT22;12898;50.520;12.152;2023-06-10T15:15:45;30.90;54.10
24802;DHT22;12898;50.520;12.152;2023-06-10T15:18:11;31.10;51.90
24802;DHT22;12898;50.520;12.152;2023-06-10T15:20:37;31.00;51.80
24802;DHT22;12898;50.520;12.152;2023-06-10T15:23:03;31.10;51.80
24802;DHT22;12898;50.520;12.152;2023-06-10T15:25:28;31.10;51.10
24802;DHT22;12898;50.520;12.152;2023-06-10T15:27:55;31.20;51.20
24802;DHT22;12898;50.520;12.152;2023-06-10T15:30:20;31.30;49.10